Yvoir, Belgium
Current Conditions -  °F | °C
As of 9:25 PM on Thursday 27 Nov 2014 (Local Time) from EBFS Reporting Station
Broken Clouds Broken Clouds  
Wind Chill: 42°   Ceiling: 600
Heat Index: 46°   Visibility: 6mi
Dew Point: 46°   Wind: 9mph
Humidity: 100%   Direction: 130°SE
Pressure: 29.65"   Gusts: NA
Location:  50.33°N, 4.88°E
Report Text: EBFS 272025Z 13008KT 9000 BKN006 BKN008 08/08 Q1004 YLO
Loading
Personal Weather Stations






























Interactive Weather Map New forecast layout! Learn more

10-Day Weather Forecast

Advertisements
Track Severe Weather on mobile